Time;durP1;ratioP1;P1;durP2;ratioP2;P2;SDS_P1;SDS_P2;PMS_P1;PMS_P2;Temp;Humidity;BMP_temperature;BMP_pressure;BME280_temperature;BME280_humidity;BME280_pressure;Samples;Min_cycle;Max_cycle;Signal;HPM_P1;HPM_P2
2023/06/10 00:00:02;;;;;;;13.70;12.67;;;15.40;99.90;;;;;;5072679;28;20539;-68
2023/06/10 00:02:31;;;;;;;14.80;13.60;;;15.30;99.90;;;;;;5071982;28;20532;-68
2023/06/10 00:05:00;;;;;;;13.90;12.63;;;15.30;99.90;;;;;;5072601;28;20453;-68
2023/06/10 00:07:28;;;;;;;14.80;13.50;;;15.40;99.90;;;;;;5072616;28;20447;-68
2023/06/10 00:09:57;;;;;;;13.57;12.47;;;15.40;99.90;;;;;;5072449;28;20489;-67
2023/06/10 00:12:25;;;;;;;14.77;13.20;;;15.30;99.90;;;;;;5071684;28;20447;-68
2023/06/10 00:14:53;;;;;;;13.93;12.83;;;15.20;99.90;;;;;;5072378;28;20442;-68
2023/06/10 00:17:22;;;;;;;14.97;13.57;;;15.20;99.90;;;;;;5072694;28;20450;-67
2023/06/10 00:19:52;;;;;;;14.30;13.20;;;15.20;99.90;;;;;;5072904;28;20479;-68
2023/06/10 00:22:22;;;;;;;17.87;16.37;;;15.30;99.90;;;;;;5074183;28;20716;-68
2023/06/10 00:24:50;;;;;;;14.97;13.77;;;15.20;99.90;;;;;;5073949;28;20482;-68
2023/06/10 00:27:18;;;;;;;13.90;12.90;;;15.30;99.90;;;;;;5072675;28;20538;-68
2023/06/10 00:29:46;;;;;;;14.67;13.57;;;15.30;99.90;;;;;;5072419;28;20490;-67
2023/06/10 00:32:14;;;;;;;15.70;14.30;;;15.30;99.90;;;;;;5071888;28;20553;-68
2023/06/10 00:34:42;;;;;;;16.53;15.10;;;15.40;99.90;;;;;;5071400;28;20444;-68
2023/06/10 00:37:11;;;;;;;14.30;13.20;;;15.30;99.90;;;;;;5072007;28;20921;-67
2023/06/10 00:39:39;;;;;;;14.70;13.30;;;15.30;99.90;;;;;;5071789;28;20464;-67
2023/06/10 00:42:10;;;;;;;15.40;14.20;;;15.20;99.90;;;;;;5071582;28;20502;-67
2023/06/10 00:44:38;;;;;;;14.00;12.90;;;15.10;99.90;;;;;;5071292;28;20433;-68
2023/06/10 00:47:07;;;;;;;15.27;13.97;;;15.20;99.90;;;;;;5070660;28;20505;-68
2023/06/10 00:49:36;;;;;;;15.00;13.70;;;15.10;99.90;;;;;;5071601;28;20460;-68
2023/06/10 00:52:05;;;;;;;17.20;15.70;;;15.00;99.90;;;;;;5071764;28;20441;-68
2023/06/10 00:54:35;;;;;;;13.77;12.47;;;14.90;99.90;;;;;;5071053;28;20544;-68
2023/06/10 00:57:03;;;;;;;29.23;21.83;;;15.00;99.90;;;;;;5071997;28;20527;-68
2023/06/10 00:59:31;;;;;;;20.50;18.13;;;14.90;99.90;;;;;;5071674;28;20459;-67
2023/06/10 01:02:00;;;;;;;19.13;17.20;;;14.90;99.90;;;;;;5071564;28;20440;-68
2023/06/10 01:04:28;;;;;;;15.70;14.43;;;14.90;99.90;;;;;;5070613;28;20458;-68
2023/06/10 01:07:06;;;;;;;15.07;13.87;;;14.90;99.90;;;;;;5071468;28;20498;-68
2023/06/10 01:09:42;;;;;;;14.53;13.40;;;14.80;99.90;;;;;;5071572;28;20464;-68
2023/06/10 01:12:29;;;;;;;15.30;14.10;;;14.70;99.90;;;;;;5071181;28;20868;-68
2023/06/10 01:14:58;;;;;;;35.77;19.67;;;14.70;99.90;;;;;;5071601;28;20535;-68
2023/06/10 01:17:27;;;;;;;20.43;18.10;;;14.70;99.90;;;;;;5071566;28;20819;-68
2023/06/10 01:19:56;;;;;;;25.40;19.17;;;14.70;99.90;;;;;;5071137;28;20463;-68
2023/06/10 01:22:28;;;;;;;26.67;18.30;;;14.70;99.90;;;;;;5070260;28;20468;-67
2023/06/10 01:24:58;;;;;;;33.90;16.90;;;14.50;99.90;;;;;;5070981;28;20483;-68
2023/06/10 01:27:30;;;;;;;25.63;17.23;;;14.50;99.90;;;;;;5071701;28;20439;-68
2023/06/10 01:30:04;;;;;;;22.97;17.90;;;14.60;99.90;;;;;;5071163;28;20581;-68
2023/06/10 01:32:38;;;;;;;30.47;17.43;;;14.50;99.90;;;;;;5070235;28;20427;-67
2023/06/10 01:35:09;;;;;;;23.20;15.87;;;14.40;99.90;;;;;;5071086;28;20489;-68
2023/06/10 01:37:40;;;;;;;24.57;16.80;;;14.50;99.90;;;;;;5070870;28;20508;-67
2023/06/10 01:40:10;;;;;;;18.00;16.23;;;14.50;99.90;;;;;;5070784;28;20538;-68
2023/06/10 01:42:38;;;;;;;34.20;17.20;;;14.40;99.90;;;;;;5069593;28;20952;-68
2023/06/10 01:45:07;;;;;;;30.90;16.43;;;14.30;99.90;;;;;;5070778;28;20846;-67
2023/06/10 01:47:36;;;;;;;17.37;15.50;;;14.30;99.90;;;;;;5070574;28;20446;-68
2023/06/10 01:50:04;;;;;;;16.97;15.23;;;14.30;99.90;;;;;;5070438;28;20514;-68
2023/06/10 01:52:32;;;;;;;16.90;15.17;;;14.30;99.90;;;;;;5069386;28;20987;-68
2023/06/10 01:55:02;;;;;;;23.93;16.47;;;14.20;99.90;;;;;;5070268;28;20451;-67
2023/06/10 01:57:30;;;;;;;23.60;16.50;;;14.20;99.90;;;;;;5070574;28;20486;-67
2023/06/10 01:59:58;;;;;;;20.70;15.50;;;14.10;99.90;;;;;;5069989;28;20469;-67
2023/06/10 02:02:26;;;;;;;18.23;16.43;;;14.10;99.90;;;;;;5068627;28;20654;-67
2023/06/10 02:04:55;;;;;;;16.00;14.60;;;14.00;99.90;;;;;;5070226;28;20444;-67
2023/06/10 02:07:23;;;;;;;15.90;14.30;;;14.00;99.90;;;;;;5070422;28;20561;-67
2023/06/10 02:09:50;;;;;;;16.10;14.47;;;14.00;99.90;;;;;;5070110;28;20549;-67
2023/06/10 02:12:20;;;;;;;16.37;14.87;;;14.10;99.90;;;;;;5069625;28;20470;-67
2023/06/10 02:14:48;;;;;;;16.20;14.67;;;14.00;99.90;;;;;;5069661;28;20430;-67
2023/06/10 02:17:16;;;;;;;15.37;14.07;;;13.90;99.90;;;;;;5070206;28;20625;-67
2023/06/10 02:19:44;;;;;;;17.20;15.80;;;13.80;99.90;;;;;;5070126;28;20460;-67
2023/06/10 02:22:12;;;;;;;17.57;16.07;;;13.70;99.90;;;;;;5069536;28;20477;-67
2023/06/10 02:24:40;;;;;;;16.60;15.10;;;13.60;99.90;;;;;;5069286;28;20459;-67
2023/06/10 02:27:07;;;;;;;17.60;16.03;;;13.60;99.90;;;;;;5070030;28;20482;-68
2023/06/10 02:29:37;;;;;;;17.53;16.17;;;13.60;99.90;;;;;;5069861;28;20467;-67
2023/06/10 02:32:06;;;;;;;16.90;15.50;;;13.60;99.90;;;;;;5069815;28;20438;-67
2023/06/10 02:34:38;;;;;;;15.97;14.60;;;13.50;99.90;;;;;;5069344;28;20473;-67
2023/06/10 02:37:06;;;;;;;15.27;13.97;;;13.50;99.90;;;;;;5070007;28;20981;-67
2023/06/10 02:39:34;;;;;;;15.67;14.27;;;13.50;99.90;;;;;;5070660;28;20489;-67
2023/06/10 02:42:02;;;;;;;13.73;12.53;;;13.40;99.90;;;;;;5071583;28;20477;-67
2023/06/10 02:44:30;;;;;;;15.07;13.77;;;13.40;99.90;;;;;;5072032;28;20477;-69
2023/06/10 02:46:59;;;;;;;13.43;12.33;;;13.30;99.90;;;;;;5070110;28;20453;-68
2023/06/10 02:49:28;;;;;;;14.97;13.57;;;13.40;99.90;;;;;;5069797;28;20964;-68
2023/06/10 02:51:56;;;;;;;17.03;15.40;;;13.50;99.90;;;;;;5069937;28;20466;-68
2023/06/10 02:54:24;;;;;;;14.03;12.83;;;13.50;99.90;;;;;;5068423;28;21019;-67
2023/06/10 02:56:55;;;;;;;15.30;14.07;;;13.40;99.90;;;;;;5069938;28;20478;-68
2023/06/10 02:59:23;;;;;;;15.27;13.97;;;13.40;99.90;;;;;;5069676;28;20493;-68
2023/06/10 03:01:51;;;;;;;14.63;13.40;;;13.30;99.90;;;;;;5069713;28;20545;-68
2023/06/10 03:04:21;;;;;;;14.03;12.80;;;13.30;99.90;;;;;;5068592;28;20526;-68
2023/06/10 03:06:49;;;;;;;13.00;11.90;;;13.40;99.90;;;;;;5069657;28;20439;-67
2023/06/10 03:09:17;;;;;;;14.73;13.50;;;13.40;99.90;;;;;;5069390;28;20889;-67
2023/06/10 03:11:44;;;;;;;14.57;13.40;;;13.40;99.90;;;;;;5072637;28;20807;-67
2023/06/10 03:14:12;;;;;;;14.50;13.37;;;13.40;99.90;;;;;;5072328;28;20497;-67
2023/06/10 03:16:40;;;;;;;15.03;13.93;;;13.40;99.90;;;;;;5073515;28;20541;-68
2023/06/10 03:19:09;;;;;;;15.10;13.80;;;13.40;99.90;;;;;;5073375;28;20469;-67
2023/06/10 03:21:39;;;;;;;15.43;14.10;;;13.30;99.90;;;;;;5073338;28;20474;-67
2023/06/10 03:24:07;;;;;;;15.43;13.87;;;13.30;99.90;;;;;;5072667;28;20530;-68
2023/06/10 03:26:35;;;;;;;14.90;13.70;;;13.30;99.90;;;;;;5073756;28;20438;-67
2023/06/10 03:29:03;;;;;;;16.60;15.17;;;13.20;99.90;;;;;;5073582;28;20446;-68
2023/06/10 03:31:31;;;;;;;16.73;15.27;;;13.20;99.90;;;;;;5073639;28;20534;-67
2023/06/10 03:33:59;;;;;;;16.53;15.07;;;13.10;99.90;;;;;;5072259;28;20446;-68
2023/06/10 03:36:28;;;;;;;17.20;15.60;;;13.10;99.90;;;;;;5073139;28;20455;-70
2023/06/10 03:38:58;;;;;;;17.33;15.80;;;13.20;99.90;;;;;;5073261;28;20436;-67
2023/06/10 03:41:26;;;;;;;15.13;13.93;;;13.20;99.90;;;;;;5073083;28;20470;-67
2023/06/10 03:43:54;;;;;;;14.73;13.53;;;13.10;99.90;;;;;;5071808;28;20481;-67
2023/06/10 03:46:22;;;;;;;15.47;14.20;;;13.10;99.90;;;;;;5072940;28;20442;-67
2023/06/10 03:48:50;;;;;;;16.17;14.80;;;13.20;99.90;;;;;;5072952;28;20457;-67
2023/06/10 03:51:18;;;;;;;14.73;13.43;;;13.20;99.90;;;;;;5073148;28;20465;-67
2023/06/10 03:53:46;;;;;;;14.77;13.20;;;13.20;99.90;;;;;;5071939;28;20489;-67
2023/06/10 03:56:15;;;;;;;13.53;12.47;;;13.30;99.90;;;;;;5073145;28;20443;-67
2023/06/10 03:58:43;;;;;;;14.00;12.90;;;13.40;99.90;;;;;;5072849;28;21010;-68
2023/06/10 04:01:14;;;;;;;13.47;12.40;;;13.50;99.90;;;;;;5072586;28;20453;-67
2023/06/10 04:03:43;;;;;;;12.23;11.30;;;13.60;99.90;;;;;;5071602;28;20868;-67
2023/06/10 04:06:11;;;;;;;12.27;11.13;;;13.80;99.90;;;;;;5072813;28;20442;-67
2023/06/10 04:08:40;;;;;;;12.00;11.00;;;13.80;99.90;;;;;;5072681;28;20449;-67
2023/06/10 04:11:08;;;;;;;11.97;10.97;;;13.80;99.90;;;;;;5072384;28;20498;-68
2023/06/10 04:13:37;;;;;;;13.67;12.50;;;13.90;99.90;;;;;;5071160;28;20499;-68
2023/06/10 04:16:06;;;;;;;13.50;12.30;;;13.90;99.90;;;;;;5072751;28;20542;-67
2023/06/10 04:18:34;;;;;;;13.50;12.40;;;14.00;99.90;;;;;;5072547;28;20450;-68
2023/06/10 04:21:02;;;;;;;13.23;12.20;;;14.10;99.90;;;;;;5072228;28;20548;-68
2023/06/10 04:23:30;;;;;;;14.70;13.60;;;14.00;99.90;;;;;;5071168;28;20552;-68
2023/06/10 04:25:59;;;;;;;14.93;13.60;;;14.20;99.90;;;;;;5072685;28;20940;-67
2023/06/10 04:28:27;;;;;;;15.37;14.17;;;14.30;99.90;;;;;;5072115;28;20959;-67
2023/06/10 04:30:56;;;;;;;14.10;12.90;;;14.40;99.90;;;;;;5072102;28;20466;-67
2023/06/10 04:33:25;;;;;;;15.30;13.87;;;14.40;99.90;;;;;;5071125;28;20463;-68
2023/06/10 04:35:52;;;;;;;14.03;12.93;;;14.50;99.90;;;;;;5071835;28;20466;-68
2023/06/10 04:38:21;;;;;;;15.13;13.70;;;14.50;99.90;;;;;;5072060;28;20517;-68
2023/06/10 04:40:49;;;;;;;14.40;13.30;;;14.60;99.90;;;;;;5071750;28;20482;-68
2023/06/10 04:43:17;;;;;;;14.67;13.47;;;14.70;99.90;;;;;;5070406;28;20476;-68
2023/06/10 04:45:45;;;;;;;14.50;13.33;;;14.80;99.90;;;;;;5071925;28;20454;-67
2023/06/10 04:48:15;;;;;;;14.30;13.00;;;14.80;99.90;;;;;;5071844;28;20459;-68
2023/06/10 04:50:43;;;;;;;13.40;12.20;;;14.90;99.90;;;;;;5071477;28;20465;-67
2023/06/10 04:53:10;;;;;;;13.30;12.20;;;14.90;99.90;;;;;;5070150;28;20437;-68
2023/06/10 04:55:38;;;;;;;14.80;13.60;;;15.00;99.90;;;;;;5071263;28;20432;-68
2023/06/10 04:58:06;;;;;;;14.00;12.77;;;15.20;99.90;;;;;;5071671;28;20446;-68
2023/06/10 05:00:34;;;;;;;14.83;13.53;;;15.20;99.90;;;;;;5071475;28;20511;-67
2023/06/10 05:03:02;;;;;;;12.67;11.67;;;15.20;99.90;;;;;;5070235;28;20478;-68
2023/06/10 05:05:32;;;;;;;13.73;12.60;;;15.30;99.90;;;;;;5071402;28;20446;-68
2023/06/10 05:08:00;;;;;;;13.00;12.00;;;15.30;99.90;;;;;;5071539;28;20506;-68
2023/06/10 05:10:31;;;;;;;13.00;12.00;;;15.50;99.90;;;;;;5071534;28;20466;-67
2023/06/10 05:12:59;;;;;;;12.67;11.67;;;15.60;99.90;;;;;;5070069;28;20530;-68
2023/06/10 05:15:27;;;;;;;13.20;12.17;;;15.60;99.90;;;;;;5072006;28;20492;-68
2023/06/10 05:17:57;;;;;;;13.13;12.13;;;15.70;99.90;;;;;;5071380;28;20456;-68
2023/06/10 05:20:26;;;;;;;13.40;12.30;;;15.70;99.90;;;;;;5071075;28;21039;-68
2023/06/10 05:22:55;;;;;;;12.70;11.43;;;15.80;99.90;;;;;;5070080;28;20475;-67
2023/06/10 05:25:23;;;;;;;11.67;10.67;;;15.90;99.90;;;;;;5071013;28;20941;-67
2023/06/10 05:27:51;;;;;;;13.90;12.60;;;16.00;99.90;;;;;;5070958;28;20531;-67
2023/06/10 05:30:19;;;;;;;15.10;12.30;;;16.10;99.90;;;;;;5071003;28;20471;-66
2023/06/10 05:32:51;;;;;;;16.37;11.00;;;16.20;99.90;;;;;;5069071;28;21194;-67
2023/06/10 05:35:19;;;;;;;14.87;11.03;;;16.30;99.90;;;;;;5070833;28;20439;-67
2023/06/10 05:37:47;;;;;;;14.60;9.60;;;16.50;99.90;;;;;;5070784;28;20937;-67
2023/06/10 05:40:16;;;;;;;10.00;9.20;;;16.60;99.90;;;;;;5070625;28;20459;-67
2023/06/10 05:42:44;;;;;;;11.07;10.07;;;16.70;99.90;;;;;;5069383;28;20489;-67
2023/06/10 05:45:12;;;;;;;9.50;8.70;;;17.00;99.90;;;;;;5070614;28;20500;-67
2023/06/10 05:47:41;;;;;;;8.67;7.90;;;17.30;97.10;;;;;;5070745;28;20582;-67
2023/06/10 05:50:10;;;;;;;9.80;8.80;;;17.40;96.80;;;;;;5070521;28;20463;-67
2023/06/10 05:52:40;;;;;;;9.17;8.37;;;17.40;98.50;;;;;;5069270;28;20436;-67
2023/06/10 05:55:08;;;;;;;8.83;8.13;;;17.50;98.60;;;;;;5070429;28;20820;-67
2023/06/10 05:57:38;;;;;;;8.90;8.23;;;17.50;98.50;;;;;;5070410;28;20442;-67
2023/06/10 06:00:08;;;;;;;8.90;8.23;;;17.60;97.80;;;;;;5070303;28;20969;-67
2023/06/10 06:02:35;;;;;;;9.10;8.40;;;17.70;97.90;;;;;;5069397;28;20530;-68
2023/06/10 06:05:04;;;;;;;8.20;7.60;;;17.80;98.40;;;;;;5070377;28;20443;-67
2023/06/10 06:07:32;;;;;;;8.23;7.63;;;17.80;98.10;;;;;;5070604;28;20447;-66
2023/06/10 06:10:00;;;;;;;8.40;7.70;;;18.00;96.80;;;;;;5070410;28;20553;-67
2023/06/10 06:12:28;;;;;;;9.30;8.50;;;18.20;95.40;;;;;;5069144;28;20443;-67
2023/06/10 06:14:57;;;;;;;8.87;8.07;;;18.40;95.20;;;;;;5070209;28;20445;-67
2023/06/10 06:17:25;;;;;;;8.20;7.50;;;18.50;93.20;;;;;;5070242;28;20534;-68
2023/06/10 06:19:53;;;;;;;7.50;6.90;;;18.70;94.00;;;;;;5070081;28;20459;-67
2023/06/10 06:22:22;;;;;;;7.70;7.00;;;18.80;93.10;;;;;;5069687;28;20443;-67
2023/06/10 06:24:49;;;;;;;8.43;7.73;;;18.90;92.40;;;;;;5069744;28;20483;-67
2023/06/10 06:27:18;;;;;;;7.83;7.13;;;19.00;93.20;;;;;;5069799;28;20482;-67
2023/06/10 06:29:45;;;;;;;7.77;7.10;;;19.10;92.10;;;;;;5069947;28;20459;-67
2023/06/10 06:32:15;;;;;;;8.33;7.63;;;19.20;91.90;;;;;;5069608;28;20988;-67
2023/06/10 06:34:43;;;;;;;8.20;7.50;;;19.40;91.90;;;;;;5069178;28;20453;-67
2023/06/10 06:37:11;;;;;;;7.73;7.13;;;19.50;91.70;;;;;;5069730;28;20477;-67
2023/06/10 06:39:39;;;;;;;7.23;6.63;;;19.60;90.90;;;;;;5069557;28;20463;-67
2023/06/10 06:42:08;;;;;;;7.73;7.07;;;19.60;90.60;;;;;;5069712;28;20438;-67
2023/06/10 06:44:36;;;;;;;9.17;8.37;;;19.60;91.10;;;;;;5069141;28;20485;-67
2023/06/10 06:47:04;;;;;;;7.70;7.10;;;19.70;91.60;;;;;;5069745;28;20789;-67
2023/06/10 06:49:33;;;;;;;8.77;8.07;;;19.70;91.70;;;;;;5069571;28;20463;-67
2023/06/10 06:52:01;;;;;;;7.70;7.00;;;19.80;91.30;;;;;;5069330;28;20443;-68
2023/06/10 06:54:30;;;;;;;8.00;7.40;;;19.90;91.20;;;;;;5068684;28;20538;-69
2023/06/10 06:56:57;;;;;;;7.93;7.23;;;20.00;91.50;;;;;;5069817;28;20535;-68
2023/06/10 06:59:25;;;;;;;8.17;7.47;;;20.00;92.30;;;;;;5069656;28;20873;-68
2023/06/10 07:01:54;;;;;;;7.80;7.20;;;20.10;90.20;;;;;;5069665;28;20450;-67
2023/06/10 07:04:22;;;;;;;7.67;7.07;;;20.20;90.20;;;;;;5068334;28;20475;-67
2023/06/10 07:06:52;;;;;;;8.83;8.03;;;20.40;90.10;;;;;;5069602;28;20462;-68
2023/06/10 07:09:19;;;;;;;7.70;7.10;;;20.50;89.30;;;;;;5069573;28;20517;-67
2023/06/10 07:11:47;;;;;;;8.47;7.53;;;20.60;89.80;;;;;;5069616;28;20814;-68
2023/06/10 07:14:15;;;;;;;8.20;7.40;;;20.70;90.70;;;;;;5068153;28;20435;-68
2023/06/10 07:16:45;;;;;;;7.97;7.37;;;21.00;87.80;;;;;;5069304;28;20449;-67
2023/06/10 07:19:13;;;;;;;7.80;7.13;;;21.00;87.40;;;;;;5069265;28;20447;-67
2023/06/10 07:21:41;;;;;;;7.17;6.67;;;21.10;89.60;;;;;;5069474;28;20825;-67
2023/06/10 07:24:10;;;;;;;7.60;7.00;;;21.20;86.40;;;;;;5075012;28;20509;-68
2023/06/10 07:26:38;;;;;;;7.67;7.07;;;21.30;84.60;;;;;;5069612;28;20469;-67
2023/06/10 07:29:06;;;;;;;8.20;7.40;;;21.40;84.70;;;;;;5069406;28;20435;-67
2023/06/10 07:31:34;;;;;;;7.80;7.10;;;21.50;84.70;;;;;;5069265;28;20453;-68
2023/06/10 07:34:02;;;;;;;8.43;7.60;;;21.60;88.20;;;;;;5068436;28;20439;-68
2023/06/10 07:36:30;;;;;;;8.90;8.13;;;21.70;83.90;;;;;;5069342;28;20442;-68
2023/06/10 07:38:58;;;;;;;7.53;6.83;;;21.70;83.80;;;;;;5069368;28;20576;-69
2023/06/10 07:41:27;;;;;;;8.20;7.57;;;21.90;83.10;;;;;;5069383;28;20866;-67
2023/06/10 07:43:55;;;;;;;7.60;6.90;;;22.00;82.10;;;;;;5068044;28;20474;-67
2023/06/10 07:46:26;;;;;;;6.97;6.40;;;22.10;83.60;;;;;;5069352;28;20497;-68
2023/06/10 07:48:55;;;;;;;7.40;6.80;;;22.20;83.20;;;;;;5069696;28;20443;-68
2023/06/10 07:51:23;;;;;;;7.43;6.83;;;22.20;82.20;;;;;;5069632;28;20948;-68
2023/06/10 07:53:51;;;;;;;8.33;7.63;;;22.30;84.20;;;;;;5068089;28;20504;-68
2023/06/10 07:56:21;;;;;;;8.70;8.10;;;22.40;81.60;;;;;;5069660;28;20439;-68
2023/06/10 07:58:50;;;;;;;7.83;7.23;;;22.40;79.60;;;;;;5073168;28;20453;-67
2023/06/10 08:01:18;;;;;;;8.10;7.50;;;22.50;80.80;;;;;;5072496;28;20426;-67
2023/06/10 08:03:46;;;;;;;8.00;7.43;;;22.60;79.00;;;;;;5071427;28;20242;-68
2023/06/10 08:06:14;;;;;;;7.80;7.20;;;22.60;77.60;;;;;;5072975;28;20447;-68
2023/06/10 08:08:43;;;;;;;9.07;8.27;;;22.70;79.40;;;;;;5073063;28;20479;-68
2023/06/10 08:11:12;;;;;;;8.03;7.33;;;22.80;78.30;;;;;;5072751;28;20455;-68
2023/06/10 08:13:40;;;;;;;8.50;7.80;;;22.90;79.10;;;;;;5071495;28;20449;-68
2023/06/10 08:16:09;;;;;;;8.33;7.63;;;23.00;78.50;;;;;;5072561;28;20431;-68
2023/06/10 08:18:37;;;;;;;8.50;7.90;;;23.10;76.90;;;;;;5072556;28;20444;-67
2023/06/10 08:21:05;;;;;;;8.43;7.73;;;23.20;78.20;;;;;;5072457;28;20546;-68
2023/06/10 08:23:33;;;;;;;8.80;8.10;;;23.30;78.40;;;;;;5071015;28;20496;-68
2023/06/10 08:26:01;;;;;;;8.60;8.00;;;23.50;79.40;;;;;;5072661;28;20446;-68
2023/06/10 08:28:29;;;;;;;9.07;8.37;;;23.70;79.00;;;;;;5072466;28;20953;-68
2023/06/10 08:30:57;;;;;;;8.07;7.57;;;23.80;74.00;;;;;;5072051;28;21083;-68
2023/06/10 08:33:26;;;;;;;8.43;7.80;;;23.80;75.10;;;;;;5071135;28;20459;-68
2023/06/10 08:35:54;;;;;;;8.20;7.60;;;23.90;73.80;;;;;;5072049;28;20434;-68
2023/06/10 08:38:22;;;;;;;8.73;8.13;;;24.10;72.30;;;;;;5071798;28;20445;-67
2023/06/10 08:40:56;;;;;;;8.13;7.53;;;24.20;72.10;;;;;;5072077;28;20467;-68
2023/06/10 08:43:33;;;;;;;8.47;7.87;;;24.30;70.80;;;;;;5070751;28;21133;-68
2023/06/10 08:46:02;;;;;;;8.30;7.67;;;24.30;70.90;;;;;;5071777;28;20562;-67
2023/06/10 08:48:32;;;;;;;8.90;8.27;;;24.40;69.70;;;;;;5071797;28;20534;-68
2023/06/10 08:51:01;;;;;;;7.70;7.17;;;24.50;69.10;;;;;;5071808;28;20857;-68
2023/06/10 08:53:30;;;;;;;7.00;6.50;;;24.60;70.30;;;;;;5070384;28;20479;-68
2023/06/10 08:56:03;;;;;;;7.47;6.97;;;24.70;67.10;;;;;;5071679;28;20437;-69
2023/06/10 08:58:35;;;;;;;7.70;7.10;;;24.80;69.70;;;;;;5071760;28;20525;-68
2023/06/10 09:01:03;;;;;;;7.23;6.63;;;24.90;68.00;;;;;;5071468;28;20516;-68
2023/06/10 09:03:33;;;;;;;8.53;7.83;;;25.10;65.30;;;;;;5070255;28;20869;-68
2023/06/10 09:06:03;;;;;;;8.93;8.20;;;25.30;64.60;;;;;;5071187;28;20490;-68
2023/06/10 09:08:31;;;;;;;7.97;7.37;;;25.30;63.10;;;;;;5070313;28;20446;-68
2023/06/10 09:11:00;;;;;;;6.70;6.20;;;25.50;63.30;;;;;;5071100;28;21010;-68
2023/06/10 09:13:28;;;;;;;7.77;7.17;;;25.70;63.40;;;;;;5069957;28;20443;-68
2023/06/10 09:16:00;;;;;;;7.30;6.77;;;25.80;64.10;;;;;;5071548;28;20439;-68
2023/06/10 09:18:28;;;;;;;7.43;6.90;;;26.00;61.40;;;;;;5071306;28;20443;-68
2023/06/10 09:20:58;;;;;;;7.70;7.10;;;26.20;63.80;;;;;;5070875;28;21034;-68
2023/06/10 09:23:26;;;;;;;7.80;7.20;;;26.50;64.90;;;;;;5069825;28;20455;-68
2023/06/10 09:25:58;;;;;;;7.03;6.53;;;26.80;63.00;;;;;;5070767;28;20469;-68
2023/06/10 09:28:26;;;;;;;7.10;6.60;;;27.00;59.80;;;;;;5070808;28;20492;-68
2023/06/10 09:31:04;;;;;;;6.93;6.43;;;27.30;59.90;;;;;;5070846;28;20486;-68
2023/06/10 09:33:32;;;;;;;7.03;6.33;;;27.60;56.60;;;;;;5069589;28;20445;-69
2023/06/10 09:36:03;;;;;;;6.10;5.63;;;27.70;54.90;;;;;;5070817;28;20482;-70
2023/06/10 09:38:32;;;;;;;6.93;6.43;;;27.80;57.50;;;;;;5070576;28;20439;-69
2023/06/10 09:41:01;;;;;;;7.30;6.80;;;28.00;58.50;;;;;;5070754;28;20470;-69
2023/06/10 09:43:41;;;;;;;6.80;6.27;;;28.30;55.20;;;;;;5069675;28;20435;-69
2023/06/10 09:46:15;;;;;;;7.83;7.23;;;28.70;54.50;;;;;;5070701;28;20529;-69
2023/06/10 09:48:45;;;;;;;7.37;6.87;;;29.00;55.40;;;;;;5070560;28;20443;-68
2023/06/10 09:51:16;;;;;;;6.33;5.93;;;29.20;53.50;;;;;;5070154;28;20537;-69
2023/06/10 09:53:49;;;;;;;6.63;6.13;;;29.20;50.50;;;;;;5069302;28;20458;-69
2023/06/10 09:56:17;;;;;;;8.10;7.40;;;28.80;51.50;;;;;;5070069;28;20834;-68
2023/06/10 09:58:46;;;;;;;8.63;7.00;;;28.30;53.30;;;;;;5070180;28;20533;-68
2023/06/10 10:01:16;;;;;;;7.23;6.50;;;28.00;53.60;;;;;;5070070;28;20487;-69
2023/06/10 10:03:46;;;;;;;7.07;6.40;;;28.20;54.40;;;;;;5068962;28;20439;-69
2023/06/10 10:06:16;;;;;;;7.90;7.23;;;28.60;54.00;;;;;;5070043;28;20485;-69
2023/06/10 10:08:44;;;;;;;7.43;6.83;;;28.60;50.90;;;;;;5070096;28;20439;-68
2023/06/10 10:11:12;;;;;;;10.93;7.60;;;27.60;52.70;;;;;;5069910;28;20828;-69
2023/06/10 10:13:41;;;;;;;7.17;6.67;;;27.40;53.90;;;;;;5068850;28;20550;-69
2023/06/10 10:16:12;;;;;;;7.47;6.87;;;27.60;55.60;;;;;;5069738;28;20443;-69
2023/06/10 10:18:42;;;;;;;8.70;8.00;;;27.80;55.40;;;;;;5070067;28;20994;-69
2023/06/10 10:21:16;;;;;;;8.07;7.37;;;27.80;55.00;;;;;;5069899;28;20498;-70
2023/06/10 10:23:51;;;;;;;7.50;6.90;;;28.40;53.80;;;;;;5068832;28;20518;-69
2023/06/10 10:26:21;;;;;;;7.40;6.87;;;29.00;49.70;;;;;;5069926;28;20478;-69
2023/06/10 10:28:57;;;;;;;8.27;7.50;;;29.40;50.50;;;;;;5069852;28;20447;-69
2023/06/10 10:31:30;;;;;;;7.53;7.03;;;29.80;54.90;;;;;;5070113;28;20446;-69
2023/06/10 10:34:00;;;;;;;7.40;6.80;;;30.70;50.90;;;;;;5068869;28;20462;-69
2023/06/10 10:36:30;;;;;;;6.63;6.23;;;31.40;48.40;;;;;;5069833;28;20469;-70
2023/06/10 10:39:01;;;;;;;6.40;6.00;;;31.90;46.00;;;;;;5069726;28;20518;-70
2023/06/10 10:41:30;;;;;;;6.97;6.50;;;32.30;45.70;;;;;;5070096;28;20435;-70
2023/06/10 10:43:59;;;;;;;6.60;6.17;;;32.90;45.70;;;;;;5068781;28;20443;-69
2023/06/10 10:46:27;;;;;;;8.70;8.10;;;32.90;42.80;;;;;;5069831;28;20482;-70
2023/06/10 10:48:57;;;;;;;6.57;6.17;;;31.90;43.40;;;;;;5069960;28;20447;-70
2023/06/10 10:51:25;;;;;;;6.67;6.27;;;31.50;48.40;;;;;;5069950;28;20542;-68
2023/06/10 10:54:13;;;;;;;7.43;6.80;;;31.80;47.10;;;;;;5068571;28;20462;-69
2023/06/10 10:57:12;;;;;;;6.17;5.77;;;32.60;45.70;;;;;;5070322;28;20485;-70
2023/06/10 10:59:55;;;;;;;5.57;5.17;;;33.40;43.50;;;;;;5069724;28;20459;-69
2023/06/10 11:02:42;;;;;;;7.40;6.70;;;34.20;41.70;;;;;;5068712;28;20443;-68
2023/06/10 11:05:12;;;;;;;7.23;6.53;;;33.80;39.80;;;;;;5066711;28;20462;-69
2023/06/10 11:07:41;;;;;;;7.40;6.80;;;33.20;40.90;;;;;;5060915;28;20450;-67
2023/06/10 11:10:12;;;;;;;7.63;7.13;;;31.60;40.30;;;;;;5067099;28;20504;-67
2023/06/10 11:12:50;;;;;;;6.47;5.97;;;30.00;43.20;;;;;;5068141;28;20451;-68
2023/06/10 11:15:24;;;;;;;7.33;6.43;;;28.90;45.60;;;;;;5069255;28;20584;-68
2023/06/10 11:18:09;;;;;;;7.40;6.90;;;28.80;48.30;;;;;;5069231;28;20481;-70
2023/06/10 11:21:02;;;;;;;6.37;5.93;;;28.70;46.00;;;;;;5072890;28;20812;-70
2023/06/10 11:23:40;;;;;;;7.20;6.70;;;28.70;46.60;;;;;;5057129;28;20446;-71
2023/06/10 11:26:32;;;;;;;6.77;6.33;;;28.50;46.40;;;;;;5063740;28;20479;-71
2023/06/10 11:29:09;;;;;;;11.47;7.60;;;28.20;48.90;;;;;;5066863;28;20938;-71
2023/06/10 11:31:42;;;;;;;6.93;6.33;;;27.70;48.20;;;;;;5067056;28;20427;-71
2023/06/10 11:34:11;;;;;;;7.10;6.60;;;27.70;49.50;;;;;;5071881;28;20446;-70
2023/06/10 11:36:42;;;;;;;6.97;6.50;;;28.60;47.70;;;;;;5073367;28;20435;-71
2023/06/10 11:39:10;;;;;;;7.20;6.80;;;29.90;45.20;;;;;;5071544;28;20793;-70
2023/06/10 11:41:40;;;;;;;7.37;6.77;;;30.90;42.20;;;;;;5073039;28;20435;-69
2023/06/10 11:44:10;;;;;;;6.80;6.30;;;31.80;45.60;;;;;;5072302;28;20431;-71
2023/06/10 11:46:39;;;;;;;6.37;5.77;;;33.00;44.30;;;;;;5072948;28;20508;-71
2023/06/10 11:49:07;;;;;;;6.63;6.23;;;33.40;39.20;;;;;;5072392;28;20525;-66
2023/06/10 11:51:37;;;;;;;6.10;5.60;;;33.60;40.90;;;;;;5072383;28;20470;-66
2023/06/10 11:54:06;;;;;;;6.17;5.57;;;33.90;40.90;;;;;;5065436;28;20891;-69
2023/06/10 11:56:34;;;;;;;5.97;5.50;;;34.00;38.50;;;;;;5067538;28;20924;-67
2023/06/10 11:59:06;;;;;;;6.07;5.47;;;33.60;38.80;;;;;;5072224;28;20505;-69
2023/06/10 12:01:37;;;;;;;5.47;5.13;;;33.30;36.20;;;;;;5072751;28;20473;-67
2023/06/10 12:04:11;;;;;;;5.30;4.90;;;33.00;37.90;;;;;;5071188;28;20431;-68
2023/06/10 12:06:40;;;;;;;6.17;5.87;;;31.90;40.80;;;;;;5071099;28;20467;-67
2023/06/10 12:09:14;;;;;;;6.20;5.70;;;31.70;42.50;;;;;;5062974;28;20543;-69
2023/06/10 12:11:53;;;;;;;7.43;6.90;;;31.50;41.60;;;;;;5067618;28;20438;-70
2023/06/10 12:14:57;;;;;;;6.17;5.77;;;31.00;41.00;;;;;;5065277;28;20538;-69
2023/06/10 12:17:38;;;;;;;7.70;7.10;;;30.20;41.60;;;;;;5067727;28;20451;-67
2023/06/10 12:20:08;;;;;;;8.40;7.60;;;30.00;44.40;;;;;;5063309;28;20503;-68
2023/06/10 12:22:40;;;;;;;7.70;7.10;;;29.10;43.60;;;;;;5071153;28;20917;-69
2023/06/10 12:25:09;;;;;;;7.43;6.83;;;28.70;44.10;;;;;;5072154;28;20443;-69
2023/06/10 12:27:51;;;;;;;7.33;6.70;;;28.50;45.50;;;;;;5071843;28;21125;-69
2023/06/10 12:30:21;;;;;;;7.10;6.60;;;28.20;45.90;;;;;;5071889;28;20459;-69
2023/06/10 12:32:52;;;;;;;6.60;6.13;;;28.40;45.10;;;;;;5070874;28;20436;-69
2023/06/10 12:35:24;;;;;;;6.00;5.57;;;28.70;46.20;;;;;;5072137;28;21314;-68
2023/06/10 12:38:00;;;;;;;5.93;5.53;;;28.90;43.90;;;;;;5071935;28;20438;-69
2023/06/10 12:40:29;;;;;;;6.43;5.93;;;29.10;43.80;;;;;;5072041;28;20508;-70
2023/06/10 12:42:57;;;;;;;5.87;5.37;;;30.20;45.00;;;;;;5070646;28;20574;-69
2023/06/10 12:45:31;;;;;;;6.53;6.10;;;31.80;42.90;;;;;;5071669;28;20939;-69
2023/06/10 12:48:09;;;;;;;6.07;5.67;;;32.20;38.70;;;;;;5071855;28;20534;-69
2023/06/10 12:50:39;;;;;;;6.70;5.13;;;31.70;40.90;;;;;;5072170;28;20455;-69